sensor_id;sensor_type;location;lat;lon;timestamp;P1;durP1;ratioP1;P2;durP2;ratioP2
14306;SDS011;7237;49.500;11.400;2024-02-04T00:02:18;2.27;;;1.63;;
14306;SDS011;7237;49.500;11.400;2024-02-04T00:04:47;1.50;;;1.40;;
14306;SDS011;7237;49.500;11.400;2024-02-04T00:07:16;2.40;;;1.77;;
14306;SDS011;7237;49.500;11.400;2024-02-04T00:09:43;2.40;;;1.53;;
14306;SDS011;7237;49.500;11.400;2024-02-04T00:12:10;1.57;;;1.47;;
14306;SDS011;7237;49.500;11.400;2024-02-04T00:14:37;1.60;;;1.50;;
14306;SDS011;7237;49.500;11.400;2024-02-04T00:17:04;2.10;;;1.80;;
14306;SDS011;7237;49.500;11.400;2024-02-04T00:19:31;1.60;;;1.50;;
14306;SDS011;7237;49.500;11.400;2024-02-04T00:21:58;1.50;;;1.40;;
14306;SDS011;7237;49.500;11.400;2024-02-04T00:24:26;1.50;;;1.40;;
14306;SDS011;7237;49.500;11.400;2024-02-04T00:26:54;1.50;;;1.40;;
14306;SDS011;7237;49.500;11.400;2024-02-04T00:29:21;1.60;;;1.50;;
14306;SDS011;7237;49.500;11.400;2024-02-04T00:31:48;1.57;;;1.47;;
14306;SDS011;7237;49.500;11.400;2024-02-04T00:34:15;1.50;;;1.40;;
14306;SDS011;7237;49.500;11.400;2024-02-04T00:36:42;1.50;;;1.40;;
14306;SDS011;7237;49.500;11.400;2024-02-04T00:39:09;1.73;;;1.30;;
14306;SDS011;7237;49.500;11.400;2024-02-04T00:41:37;1.23;;;1.13;;
14306;SDS011;7237;49.500;11.400;2024-02-04T00:44:05;1.53;;;1.43;;
14306;SDS011;7237;49.500;11.400;2024-02-04T00:46:32;1.40;;;1.30;;
14306;SDS011;7237;49.500;11.400;2024-02-04T00:48:59;1.53;;;1.43;;
14306;SDS011;7237;49.500;11.400;2024-02-04T00:51:26;1.47;;;1.37;;
14306;SDS011;7237;49.500;11.400;2024-02-04T00:53:53;1.40;;;1.30;;
14306;SDS011;7237;49.500;11.400;2024-02-04T00:56:20;1.80;;;1.53;;
14306;SDS011;7237;49.500;11.400;2024-02-04T00:58:48;1.07;;;1.07;;
14306;SDS011;7237;49.500;11.400;2024-02-04T01:01:16;1.23;;;1.20;;
14306;SDS011;7237;49.500;11.400;2024-02-04T01:03:44;1.30;;;1.20;;
14306;SDS011;7237;49.500;11.400;2024-02-04T01:06:11;1.20;;;1.20;;
14306;SDS011;7237;49.500;11.400;2024-02-04T01:08:38;1.00;;;1.00;;
14306;SDS011;7237;49.500;11.400;2024-02-04T01:11:05;1.30;;;1.20;;
14306;SDS011;7237;49.500;11.400;2024-02-04T01:13:32;1.10;;;1.10;;
14306;SDS011;7237;49.500;11.400;2024-02-04T01:16:01;1.27;;;1.07;;
14306;SDS011;7237;49.500;11.400;2024-02-04T01:18:28;1.00;;;1.00;;
14306;SDS011;7237;49.500;11.400;2024-02-04T01:20:56;1.20;;;1.10;;
14306;SDS011;7237;49.500;11.400;2024-02-04T01:23:25;1.07;;;1.07;;
14306;SDS011;7237;49.500;11.400;2024-02-04T01:25:52;2.00;;;1.20;;
14306;SDS011;7237;49.500;11.400;2024-02-04T01:28:19;1.40;;;1.20;;
14306;SDS011;7237;49.500;11.400;2024-02-04T01:30:46;1.13;;;1.03;;
14306;SDS011;7237;49.500;11.400;2024-02-04T01:33:14;0.90;;;0.90;;
14306;SDS011;7237;49.500;11.400;2024-02-04T01:35:42;1.10;;;1.00;;
14306;SDS011;7237;49.500;11.400;2024-02-04T01:38:09;0.87;;;0.87;;
14306;SDS011;7237;49.500;11.400;2024-02-04T01:40:36;1.00;;;1.00;;
14306;SDS011;7237;49.500;11.400;2024-02-04T01:43:03;1.10;;;1.10;;
14306;SDS011;7237;49.500;11.400;2024-02-04T01:45:30;0.80;;;0.80;;
14306;SDS011;7237;49.500;11.400;2024-02-04T01:47:57;1.00;;;1.00;;
14306;SDS011;7237;49.500;11.400;2024-02-04T01:50:26;1.23;;;1.17;;
14306;SDS011;7237;49.500;11.400;2024-02-04T01:52:53;1.70;;;1.10;;
14306;SDS011;7237;49.500;11.400;2024-02-04T01:55:21;1.37;;;1.10;;
14306;SDS011;7237;49.500;11.400;2024-02-04T01:57:48;1.27;;;1.10;;
14306;SDS011;7237;49.500;11.400;2024-02-04T02:00:15;0.97;;;0.97;;
14306;SDS011;7237;49.500;11.400;2024-02-04T02:02:43;1.27;;;1.13;;
14306;SDS011;7237;49.500;11.400;2024-02-04T02:05:12;1.60;;;0.87;;
14306;SDS011;7237;49.500;11.400;2024-02-04T02:07:41;2.10;;;1.00;;
14306;SDS011;7237;49.500;11.400;2024-02-04T02:10:10;1.00;;;1.00;;
14306;SDS011;7237;49.500;11.400;2024-02-04T02:12:39;1.27;;;1.00;;
14306;SDS011;7237;49.500;11.400;2024-02-04T02:15:10;1.10;;;1.10;;
14306;SDS011;7237;49.500;11.400;2024-02-04T02:17:38;0.90;;;0.90;;
14306;SDS011;7237;49.500;11.400;2024-02-04T02:20:08;1.43;;;1.20;;
14306;SDS011;7237;49.500;11.400;2024-02-04T02:22:44;1.30;;;1.20;;
14306;SDS011;7237;49.500;11.400;2024-02-04T02:25:14;1.13;;;1.03;;
14306;SDS011;7237;49.500;11.400;2024-02-04T02:27:47;1.40;;;1.30;;
14306;SDS011;7237;49.500;11.400;2024-02-04T02:30:15;1.17;;;1.07;;
14306;SDS011;7237;49.500;11.400;2024-02-04T02:32:42;1.10;;;1.10;;
14306;SDS011;7237;49.500;11.400;2024-02-04T02:35:10;0.90;;;0.90;;
14306;SDS011;7237;49.500;11.400;2024-02-04T02:37:40;2.40;;;1.33;;
14306;SDS011;7237;49.500;11.400;2024-02-04T02:40:09;1.00;;;1.00;;
14306;SDS011;7237;49.500;11.400;2024-02-04T02:42:38;1.50;;;1.40;;
14306;SDS011;7237;49.500;11.400;2024-02-04T02:45:05;1.23;;;1.13;;
14306;SDS011;7237;49.500;11.400;2024-02-04T02:47:33;1.70;;;1.60;;
14306;SDS011;7237;49.500;11.400;2024-02-04T02:50:00;1.40;;;1.30;;
14306;SDS011;7237;49.500;11.400;2024-02-04T02:52:27;1.00;;;1.00;;
14306;SDS011;7237;49.500;11.400;2024-02-04T02:54:54;1.40;;;1.30;;
14306;SDS011;7237;49.500;11.400;2024-02-04T02:57:21;1.50;;;1.40;;
14306;SDS011;7237;49.500;11.400;2024-02-04T02:59:50;1.50;;;1.40;;
14306;SDS011;7237;49.500;11.400;2024-02-04T03:02:17;3.53;;;1.40;;
14306;SDS011;7237;49.500;11.400;2024-02-04T03:04:44;1.27;;;1.10;;
14306;SDS011;7237;49.500;11.400;2024-02-04T03:07:11;1.70;;;1.20;;
14306;SDS011;7237;49.500;11.400;2024-02-04T03:09:38;1.50;;;1.40;;
14306;SDS011;7237;49.500;11.400;2024-02-04T03:12:05;1.50;;;1.37;;
14306;SDS011;7237;49.500;11.400;2024-02-04T03:14:32;1.43;;;1.33;;
14306;SDS011;7237;49.500;11.400;2024-02-04T03:17:01;1.50;;;1.40;;
14306;SDS011;7237;49.500;11.400;2024-02-04T03:19:28;1.50;;;1.40;;
14306;SDS011;7237;49.500;11.400;2024-02-04T03:21:55;1.70;;;1.50;;
14306;SDS011;7237;49.500;11.400;2024-02-04T03:24:22;1.70;;;1.60;;
14306;SDS011;7237;49.500;11.400;2024-02-04T03:26:49;1.50;;;1.40;;
14306;SDS011;7237;49.500;11.400;2024-02-04T03:29:16;1.53;;;1.43;;
14306;SDS011;7237;49.500;11.400;2024-02-04T03:31:43;1.47;;;1.37;;
14306;SDS011;7237;49.500;11.400;2024-02-04T03:34:11;1.70;;;1.60;;
14306;SDS011;7237;49.500;11.400;2024-02-04T03:36:38;1.60;;;1.50;;
14306;SDS011;7237;49.500;11.400;2024-02-04T03:39:05;1.60;;;1.50;;
14306;SDS011;7237;49.500;11.400;2024-02-04T03:41:33;1.30;;;1.20;;
14306;SDS011;7237;49.500;11.400;2024-02-04T03:44:00;1.77;;;1.67;;
14306;SDS011;7237;49.500;11.400;2024-02-04T03:46:27;1.80;;;1.70;;
14306;SDS011;7237;49.500;11.400;2024-02-04T03:48:54;1.63;;;1.53;;
14306;SDS011;7237;49.500;11.400;2024-02-04T03:51:22;1.43;;;1.37;;
14306;SDS011;7237;49.500;11.400;2024-02-04T03:53:50;1.67;;;1.57;;
14306;SDS011;7237;49.500;11.400;2024-02-04T03:56:18;2.13;;;1.60;;
14306;SDS011;7237;49.500;11.400;2024-02-04T03:58:45;1.70;;;1.60;;
14306;SDS011;7237;49.500;11.400;2024-02-04T04:01:12;2.70;;;1.80;;
14306;SDS011;7237;49.500;11.400;2024-02-04T04:03:39;1.60;;;1.50;;
14306;SDS011;7237;49.500;11.400;2024-02-04T04:06:06;1.77;;;1.67;;
14306;SDS011;7237;49.500;11.400;2024-02-04T04:08:36;2.97;;;2.00;;
14306;SDS011;7237;49.500;11.400;2024-02-04T04:11:03;1.73;;;1.63;;
14306;SDS011;7237;49.500;11.400;2024-02-04T04:13:30;1.77;;;1.67;;
14306;SDS011;7237;49.500;11.400;2024-02-04T04:15:59;1.70;;;1.60;;
14306;SDS011;7237;49.500;11.400;2024-02-04T04:18:26;1.57;;;1.47;;
14306;SDS011;7237;49.500;11.400;2024-02-04T04:20:53;1.60;;;1.50;;
14306;SDS011;7237;49.500;11.400;2024-02-04T04:23:20;2.00;;;1.80;;
14306;SDS011;7237;49.500;11.400;2024-02-04T04:25:49;1.70;;;1.60;;
14306;SDS011;7237;49.500;11.400;2024-02-04T04:28:16;1.70;;;1.60;;
14306;SDS011;7237;49.500;11.400;2024-02-04T04:30:43;2.10;;;2.00;;
14306;SDS011;7237;49.500;11.400;2024-02-04T04:33:10;1.87;;;1.77;;
14306;SDS011;7237;49.500;11.400;2024-02-04T04:35:38;2.17;;;1.97;;
14306;SDS011;7237;49.500;11.400;2024-02-04T04:38:05;1.73;;;1.63;;
14306;SDS011;7237;49.500;11.400;2024-02-04T04:40:32;1.97;;;1.80;;
14306;SDS011;7237;49.500;11.400;2024-02-04T04:43:00;2.77;;;1.73;;
14306;SDS011;7237;49.500;11.400;2024-02-04T04:45:27;2.57;;;2.07;;
14306;SDS011;7237;49.500;11.400;2024-02-04T04:47:54;2.23;;;2.00;;
14306;SDS011;7237;49.500;11.400;2024-02-04T04:50:22;2.13;;;2.00;;
14306;SDS011;7237;49.500;11.400;2024-02-04T04:52:49;2.20;;;2.00;;
14306;SDS011;7237;49.500;11.400;2024-02-04T04:55:16;2.00;;;1.87;;
14306;SDS011;7237;49.500;11.400;2024-02-04T04:57:43;1.67;;;1.57;;
14306;SDS011;7237;49.500;11.400;2024-02-04T05:00:12;2.33;;;1.83;;
14306;SDS011;7237;49.500;11.400;2024-02-04T05:02:39;1.90;;;1.80;;
14306;SDS011;7237;49.500;11.400;2024-02-04T05:05:09;3.40;;;1.97;;
14306;SDS011;7237;49.500;11.400;2024-02-04T05:07:37;1.80;;;1.70;;
14306;SDS011;7237;49.500;11.400;2024-02-04T05:10:04;2.03;;;1.93;;
14306;SDS011;7237;49.500;11.400;2024-02-04T05:12:32;3.20;;;1.60;;
14306;SDS011;7237;49.500;11.400;2024-02-04T05:14:59;1.83;;;1.73;;
14306;SDS011;7237;49.500;11.400;2024-02-04T05:17:27;1.90;;;1.80;;
14306;SDS011;7237;49.500;11.400;2024-02-04T05:19:54;1.80;;;1.70;;
14306;SDS011;7237;49.500;11.400;2024-02-04T05:22:21;1.60;;;1.50;;
14306;SDS011;7237;49.500;11.400;2024-02-04T05:24:48;1.90;;;1.80;;
14306;SDS011;7237;49.500;11.400;2024-02-04T05:27:15;1.50;;;1.40;;
14306;SDS011;7237;49.500;11.400;2024-02-04T05:29:42;1.53;;;1.43;;
14306;SDS011;7237;49.500;11.400;2024-02-04T05:32:10;2.97;;;1.70;;
14306;SDS011;7237;49.500;11.400;2024-02-04T05:34:38;1.60;;;1.50;;
14306;SDS011;7237;49.500;11.400;2024-02-04T05:37:05;1.93;;;1.83;;
14306;SDS011;7237;49.500;11.400;2024-02-04T05:39:32;1.40;;;1.30;;
14306;SDS011;7237;49.500;11.400;2024-02-04T05:41:59;1.13;;;1.03;;
14306;SDS011;7237;49.500;11.400;2024-02-04T05:44:26;1.20;;;1.20;;
14306;SDS011;7237;49.500;11.400;2024-02-04T05:46:53;1.33;;;1.23;;
14306;SDS011;7237;49.500;11.400;2024-02-04T05:49:20;1.40;;;1.30;;
14306;SDS011;7237;49.500;11.400;2024-02-04T05:51:49;1.07;;;1.07;;
14306;SDS011;7237;49.500;11.400;2024-02-04T05:54:16;1.00;;;1.00;;
14306;SDS011;7237;49.500;11.400;2024-02-04T05:56:43;0.90;;;0.90;;
14306;SDS011;7237;49.500;11.400;2024-02-04T05:59:10;0.70;;;0.70;;
14306;SDS011;7237;49.500;11.400;2024-02-04T06:01:37;0.80;;;0.80;;
14306;SDS011;7237;49.500;11.400;2024-02-04T06:04:04;0.90;;;0.90;;
14306;SDS011;7237;49.500;11.400;2024-02-04T06:06:31;0.87;;;0.87;;
14306;SDS011;7237;49.500;11.400;2024-02-04T06:09:00;0.60;;;0.60;;
14306;SDS011;7237;49.500;11.400;2024-02-04T06:11:27;0.60;;;0.60;;
14306;SDS011;7237;49.500;11.400;2024-02-04T06:13:55;2.10;;;0.90;;
14306;SDS011;7237;49.500;11.400;2024-02-04T06:16:22;0.63;;;0.63;;
14306;SDS011;7237;49.500;11.400;2024-02-04T06:18:49;0.60;;;0.60;;
14306;SDS011;7237;49.500;11.400;2024-02-04T06:21:16;0.70;;;0.70;;
14306;SDS011;7237;49.500;11.400;2024-02-04T06:23:43;0.83;;;0.83;;
14306;SDS011;7237;49.500;11.400;2024-02-04T06:26:11;1.20;;;1.10;;
14306;SDS011;7237;49.500;11.400;2024-02-04T06:28:38;2.63;;;2.43;;
14306;SDS011;7237;49.500;11.400;2024-02-04T06:31:08;1.70;;;1.60;;
14306;SDS011;7237;49.500;11.400;2024-02-04T06:33:36;1.40;;;1.30;;
14306;SDS011;7237;49.500;11.400;2024-02-04T06:36:07;1.50;;;1.40;;
14306;SDS011;7237;49.500;11.400;2024-02-04T06:38:35;1.00;;;1.00;;
14306;SDS011;7237;49.500;11.400;2024-02-04T06:41:02;0.83;;;0.83;;
14306;SDS011;7237;49.500;11.400;2024-02-04T06:43:30;1.30;;;1.20;;
14306;SDS011;7237;49.500;11.400;2024-02-04T06:45:57;1.47;;;0.90;;
14306;SDS011;7237;49.500;11.400;2024-02-04T06:48:24;0.50;;;0.50;;
14306;SDS011;7237;49.500;11.400;2024-02-04T06:50:51;1.60;;;1.50;;
14306;SDS011;7237;49.500;11.400;2024-02-04T06:53:18;1.00;;;1.00;;
14306;SDS011;7237;49.500;11.400;2024-02-04T06:55:45;1.00;;;1.00;;
14306;SDS011;7237;49.500;11.400;2024-02-04T06:58:12;0.87;;;0.87;;
14306;SDS011;7237;49.500;11.400;2024-02-04T07:00:41;0.80;;;0.80;;
14306;SDS011;7237;49.500;11.400;2024-02-04T07:03:08;0.90;;;0.90;;
14306;SDS011;7237;49.500;11.400;2024-02-04T07:05:36;1.63;;;1.23;;
14306;SDS011;7237;49.500;11.400;2024-02-04T07:08:03;1.10;;;1.10;;
14306;SDS011;7237;49.500;11.400;2024-02-04T07:10:30;1.30;;;1.20;;
14306;SDS011;7237;49.500;11.400;2024-02-04T07:12:57;0.77;;;0.77;;
14306;SDS011;7237;49.500;11.400;2024-02-04T07:15:24;1.17;;;1.10;;
14306;SDS011;7237;49.500;11.400;2024-02-04T07:17:53;1.40;;;1.30;;
14306;SDS011;7237;49.500;11.400;2024-02-04T07:20:20;1.57;;;1.10;;
14306;SDS011;7237;49.500;11.400;2024-02-04T07:22:47;1.60;;;0.80;;
14306;SDS011;7237;49.500;11.400;2024-02-04T07:25:14;0.70;;;0.70;;
14306;SDS011;7237;49.500;11.400;2024-02-04T07:27:41;1.10;;;1.00;;
14306;SDS011;7237;49.500;11.400;2024-02-04T07:30:08;0.50;;;0.50;;
14306;SDS011;7237;49.500;11.400;2024-02-04T07:32:35;0.60;;;0.60;;
14306;SDS011;7237;49.500;11.400;2024-02-04T07:35:04;2.20;;;0.90;;
14306;SDS011;7237;49.500;11.400;2024-02-04T07:37:33;0.50;;;0.50;;
14306;SDS011;7237;49.500;11.400;2024-02-04T07:40:00;1.23;;;1.13;;
14306;SDS011;7237;49.500;11.400;2024-02-04T07:42:30;1.17;;;1.07;;
14306;SDS011;7237;49.500;11.400;2024-02-04T07:44:57;1.17;;;1.17;;
14306;SDS011;7237;49.500;11.400;2024-02-04T07:47:24;0.97;;;0.90;;
14306;SDS011;7237;49.500;11.400;2024-02-04T07:49:51;1.00;;;1.00;;
14306;SDS011;7237;49.500;11.400;2024-02-04T07:52:20;0.80;;;0.80;;
14306;SDS011;7237;49.500;11.400;2024-02-04T07:54:47;1.20;;;1.10;;
14306;SDS011;7237;49.500;11.400;2024-02-04T07:57:14;1.30;;;1.20;;
14306;SDS011;7237;49.500;11.400;2024-02-04T07:59:41;1.20;;;1.10;;
14306;SDS011;7237;49.500;11.400;2024-02-04T08:02:08;1.13;;;1.03;;
14306;SDS011;7237;49.500;11.400;2024-02-04T08:04:35;1.30;;;1.20;;
14306;SDS011;7237;49.500;11.400;2024-02-04T08:07:02;1.73;;;1.47;;
14306;SDS011;7237;49.500;11.400;2024-02-04T08:09:31;1.13;;;1.00;;
14306;SDS011;7237;49.500;11.400;2024-02-04T08:11:58;1.00;;;1.00;;
14306;SDS011;7237;49.500;11.400;2024-02-04T08:14:25;0.80;;;0.60;;
14306;SDS011;7237;49.500;11.400;2024-02-04T08:16:52;0.93;;;0.93;;
14306;SDS011;7237;49.500;11.400;2024-02-04T08:19:19;2.07;;;1.27;;
14306;SDS011;7237;49.500;11.400;2024-02-04T08:21:46;1.40;;;0.93;;
14306;SDS011;7237;49.500;11.400;2024-02-04T08:24:13;0.80;;;0.80;;
14306;SDS011;7237;49.500;11.400;2024-02-04T08:26:41;1.50;;;1.40;;
14306;SDS011;7237;49.500;11.400;2024-02-04T08:29:08;0.90;;;0.80;;
14306;SDS011;7237;49.500;11.400;2024-02-04T08:31:36;0.83;;;0.73;;
14306;SDS011;7237;49.500;11.400;2024-02-04T08:34:03;0.60;;;0.60;;
14306;SDS011;7237;49.500;11.400;2024-02-04T08:36:32;0.47;;;0.47;;
14306;SDS011;7237;49.500;11.400;2024-02-04T08:38:59;0.60;;;0.60;;
14306;SDS011;7237;49.500;11.400;2024-02-04T08:41:26;0.83;;;0.83;;
14306;SDS011;7237;49.500;11.400;2024-02-04T08:43:54;0.77;;;0.67;;
14306;SDS011;7237;49.500;11.400;2024-02-04T08:46:21;0.63;;;0.63;;
14306;SDS011;7237;49.500;11.400;2024-02-04T08:48:48;0.90;;;0.90;;
14306;SDS011;7237;49.500;11.400;2024-02-04T08:51:15;1.97;;;1.60;;
14306;SDS011;7237;49.500;11.400;2024-02-04T08:53:44;1.20;;;1.10;;
14306;SDS011;7237;49.500;11.400;2024-02-04T08:56:11;0.60;;;0.60;;
14306;SDS011;7237;49.500;11.400;2024-02-04T08:58:38;0.93;;;0.93;;
14306;SDS011;7237;49.500;11.400;2024-02-04T09:01:07;1.30;;;1.20;;
14306;SDS011;7237;49.500;11.400;2024-02-04T09:03:34;0.97;;;0.97;;
14306;SDS011;7237;49.500;11.400;2024-02-04T09:06:01;1.20;;;1.20;;
14306;SDS011;7237;49.500;11.400;2024-02-04T09:08:28;0.97;;;0.77;;
14306;SDS011;7237;49.500;11.400;2024-02-04T09:10:56;1.37;;;1.00;;
14306;SDS011;7237;49.500;11.400;2024-02-04T09:13:23;1.50;;;1.20;;
14306;SDS011;7237;49.500;11.400;2024-02-04T09:15:50;1.50;;;1.10;;
14306;SDS011;7237;49.500;11.400;2024-02-04T09:18:20;1.10;;;1.00;;
14306;SDS011;7237;49.500;11.400;2024-02-04T09:20:47;1.30;;;1.20;;
14306;SDS011;7237;49.500;11.400;2024-02-04T09:23:14;2.57;;;1.67;;
14306;SDS011;7237;49.500;11.400;2024-02-04T09:25:41;1.00;;;0.80;;
14306;SDS011;7237;49.500;11.400;2024-02-04T09:28:08;0.57;;;0.57;;
14306;SDS011;7237;49.500;11.400;2024-02-04T09:30:35;1.27;;;0.40;;
14306;SDS011;7237;49.500;11.400;2024-02-04T09:33:03;0.50;;;0.50;;
14306;SDS011;7237;49.500;11.400;2024-02-04T09:35:31;0.43;;;0.43;;
14306;SDS011;7237;49.500;11.400;2024-02-04T09:37:59;0.43;;;0.43;;
14306;SDS011;7237;49.500;11.400;2024-02-04T09:40:26;0.60;;;0.60;;
14306;SDS011;7237;49.500;11.400;2024-02-04T09:42:53;0.60;;;0.40;;
14306;SDS011;7237;49.500;11.400;2024-02-04T09:45:20;0.53;;;0.53;;
14306;SDS011;7237;49.500;11.400;2024-02-04T09:47:47;0.50;;;0.50;;
14306;SDS011;7237;49.500;11.400;2024-02-04T09:50:17;0.97;;;0.50;;
14306;SDS011;7237;49.500;11.400;2024-02-04T09:52:47;0.73;;;0.50;;
14306;SDS011;7237;49.500;11.400;2024-02-04T09:55:15;0.40;;;0.40;;
14306;SDS011;7237;49.500;11.400;2024-02-04T09:57:43;1.07;;;0.60;;
14306;SDS011;7237;49.500;11.400;2024-02-04T10:00:11;0.47;;;0.47;;
14306;SDS011;7237;49.500;11.400;2024-02-04T10:02:38;0.40;;;0.40;;
14306;SDS011;7237;49.500;11.400;2024-02-04T10:05:06;0.70;;;0.70;;
14306;SDS011;7237;49.500;11.400;2024-02-04T10:07:34;1.13;;;1.00;;
14306;SDS011;7237;49.500;11.400;2024-02-04T10:10:03;1.97;;;1.20;;
14306;SDS011;7237;49.500;11.400;2024-02-04T10:12:30;1.23;;;1.03;;
14306;SDS011;7237;49.500;11.400;2024-02-04T10:14:58;1.03;;;1.00;;
14306;SDS011;7237;49.500;11.400;2024-02-04T10:17:25;1.27;;;1.07;;
14306;SDS011;7237;49.500;11.400;2024-02-04T10:19:52;1.60;;;1.30;;
14306;SDS011;7237;49.500;11.400;2024-02-04T10:22:19;1.77;;;1.50;;
14306;SDS011;7237;49.500;11.400;2024-02-04T10:24:46;1.70;;;1.60;;
14306;SDS011;7237;49.500;11.400;2024-02-04T10:27:16;2.23;;;2.03;;
14306;SDS011;7237;49.500;11.400;2024-02-04T10:29:43;1.77;;;1.67;;
14306;SDS011;7237;49.500;11.400;2024-02-04T10:32:10;1.40;;;1.30;;
14306;SDS011;7237;49.500;11.400;2024-02-04T10:34:38;1.00;;;1.00;;
14306;SDS011;7237;49.500;11.400;2024-02-04T10:37:05;0.63;;;0.63;;
14306;SDS011;7237;49.500;11.400;2024-02-04T10:39:32;1.47;;;1.37;;
14306;SDS011;7237;49.500;11.400;2024-02-04T10:42:01;2.00;;;1.80;;
14306;SDS011;7237;49.500;11.400;2024-02-04T10:44:31;0.77;;;0.77;;
14306;SDS011;7237;49.500;11.400;2024-02-04T10:47:01;1.70;;;1.00;;
14306;SDS011;7237;49.500;11.400;2024-02-04T10:49:32;0.63;;;0.63;;
14306;SDS011;7237;49.500;11.400;2024-02-04T10:52:02;1.03;;;0.83;;
14306;SDS011;7237;49.500;11.400;2024-02-04T10:54:31;1.50;;;1.40;;
14306;SDS011;7237;49.500;11.400;2024-02-04T10:57:01;1.70;;;1.50;;
14306;SDS011;7237;49.500;11.400;2024-02-04T10:59:31;1.27;;;1.10;;
14306;SDS011;7237;49.500;11.400;2024-02-04T11:01:58;1.70;;;1.40;;
14306;SDS011;7237;49.500;11.400;2024-02-04T11:04:25;2.00;;;1.77;;
14306;SDS011;7237;49.500;11.400;2024-02-04T11:06:54;1.40;;;1.30;;
14306;SDS011;7237;49.500;11.400;2024-02-04T11:09:22;1.27;;;1.13;;
14306;SDS011;7237;49.500;11.400;2024-02-04T11:11:49;1.33;;;1.20;;
14306;SDS011;7237;49.500;11.400;2024-02-04T11:14:18;0.70;;;0.70;;
14306;SDS011;7237;49.500;11.400;2024-02-04T11:16:56;2.30;;;2.10;;
14306;SDS011;7237;49.500;11.400;2024-02-04T11:19:29;2.07;;;1.47;;
14306;SDS011;7237;49.500;11.400;2024-02-04T11:22:03;2.10;;;1.53;;
14306;SDS011;7237;49.500;11.400;2024-02-04T11:24:43;1.97;;;1.70;;
14306;SDS011;7237;49.500;11.400;2024-02-04T11:27:12;5.33;;;3.30;;
14306;SDS011;7237;49.500;11.400;2024-02-04T11:29:41;3.13;;;2.83;;
14306;SDS011;7237;49.500;11.400;2024-02-04T11:32:09;1.57;;;1.43;;
14306;SDS011;7237;49.500;11.400;2024-02-04T11:34:37;2.03;;;1.80;;
14306;SDS011;7237;49.500;11.400;2024-02-04T11:37:13;2.60;;;2.40;;
14306;SDS011;7237;49.500;11.400;2024-02-04T11:39:47;2.10;;;1.60;;
14306;SDS011;7237;49.500;11.400;2024-02-04T11:42:14;2.47;;;2.27;;
14306;SDS011;7237;49.500;11.400;2024-02-04T11:44:41;1.67;;;1.57;;
14306;SDS011;7237;49.500;11.400;2024-02-04T11:47:10;1.40;;;1.30;;
14306;SDS011;7237;49.500;11.400;2024-02-04T11:49:37;0.80;;;0.80;;
14306;SDS011;7237;49.500;11.400;2024-02-04T11:52:05;0.90;;;0.90;;
14306;SDS011;7237;49.500;11.400;2024-02-04T11:54:32;0.90;;;0.90;;
14306;SDS011;7237;49.500;11.400;2024-02-04T11:56:59;1.60;;;1.50;;
14306;SDS011;7237;49.500;11.400;2024-02-04T11:59:27;1.20;;;1.10;;
14306;SDS011;7237;49.500;11.400;2024-02-04T12:01:54;1.27;;;1.17;;
14306;SDS011;7237;49.500;11.400;2024-02-04T12:04:22;0.73;;;0.73;;
14306;SDS011;7237;49.500;11.400;2024-02-04T12:06:49;1.30;;;1.20;;
14306;SDS011;7237;49.500;11.400;2024-02-04T12:09:17;1.00;;;0.80;;
14306;SDS011;7237;49.500;11.400;2024-02-04T12:11:44;0.90;;;0.90;;
14306;SDS011;7237;49.500;11.400;2024-02-04T12:14:11;0.90;;;0.90;;
14306;SDS011;7237;49.500;11.400;2024-02-04T12:16:40;1.90;;;1.30;;
14306;SDS011;7237;49.500;11.400;2024-02-04T12:19:07;0.70;;;0.70;;
14306;SDS011;7237;49.500;11.400;2024-02-04T12:21:36;0.90;;;0.90;;
14306;SDS011;7237;49.500;11.400;2024-02-04T12:24:04;0.80;;;0.80;;
14306;SDS011;7237;49.500;11.400;2024-02-04T12:26:31;0.87;;;0.73;;
14306;SDS011;7237;49.500;11.400;2024-02-04T12:28:58;1.60;;;1.50;;
14306;SDS011;7237;49.500;11.400;2024-02-04T12:31:26;1.00;;;1.00;;
14306;SDS011;7237;49.500;11.400;2024-02-04T12:33:54;3.50;;;3.20;;
14306;SDS011;7237;49.500;11.400;2024-02-04T12:36:22;2.33;;;2.03;;
14306;SDS011;7237;49.500;11.400;2024-02-04T12:38:53;1.27;;;1.17;;
14306;SDS011;7237;49.500;11.400;2024-02-04T12:41:20;1.40;;;0.80;;
14306;SDS011;7237;49.500;11.400;2024-02-04T12:43:51;0.93;;;0.93;;
14306;SDS011;7237;49.500;11.400;2024-02-04T12:46:18;0.60;;;0.60;;
14306;SDS011;7237;49.500;11.400;2024-02-04T12:48:50;0.90;;;0.90;;
14306;SDS011;7237;49.500;11.400;2024-02-04T12:51:23;0.60;;;0.60;;
14306;SDS011;7237;49.500;11.400;2024-02-04T12:53:50;0.47;;;0.40;;
14306;SDS011;7237;49.500;11.400;2024-02-04T12:56:18;0.53;;;0.53;;
14306;SDS011;7237;49.500;11.400;2024-02-04T12:58:46;0.90;;;0.90;;
14306;SDS011;7237;49.500;11.400;2024-02-04T13:01:13;0.70;;;0.70;;
14306;SDS011;7237;49.500;11.400;2024-02-04T13:03:40;3.23;;;1.87;;
14306;SDS011;7237;49.500;11.400;2024-02-04T13:06:07;0.67;;;0.67;;
14306;SDS011;7237;49.500;11.400;2024-02-04T13:08:35;0.70;;;0.70;;
14306;SDS011;7237;49.500;11.400;2024-02-04T13:11:02;0.60;;;0.60;;
14306;SDS011;7237;49.500;11.400;2024-02-04T13:13:30;0.73;;;0.73;;
14306;SDS011;7237;49.500;11.400;2024-02-04T13:15:57;0.80;;;0.80;;
14306;SDS011;7237;49.500;11.400;2024-02-04T13:18:24;0.50;;;0.50;;
14306;SDS011;7237;49.500;11.400;2024-02-04T13:20:51;0.77;;;0.77;;
14306;SDS011;7237;49.500;11.400;2024-02-04T13:23:18;0.70;;;0.70;;
14306;SDS011;7237;49.500;11.400;2024-02-04T13:25:45;0.53;;;0.53;;
14306;SDS011;7237;49.500;11.400;2024-02-04T13:28:12;0.80;;;0.77;;
14306;SDS011;7237;49.500;11.400;2024-02-04T13:30:41;0.57;;;0.57;;
14306;SDS011;7237;49.500;11.400;2024-02-04T13:33:08;0.97;;;0.80;;
14306;SDS011;7237;49.500;11.400;2024-02-04T13:35:35;0.80;;;0.80;;
14306;SDS011;7237;49.500;11.400;2024-02-04T13:38:02;0.70;;;0.70;;
14306;SDS011;7237;49.500;11.400;2024-02-04T13:40:30;0.60;;;0.60;;
14306;SDS011;7237;49.500;11.400;2024-02-04T13:42:58;0.80;;;0.80;;
14306;SDS011;7237;49.500;11.400;2024-02-04T13:45:25;2.47;;;1.70;;
14306;SDS011;7237;49.500;11.400;2024-02-04T13:47:53;1.07;;;1.07;;
14306;SDS011;7237;49.500;11.400;2024-02-04T13:50:20;1.93;;;0.53;;
14306;SDS011;7237;49.500;11.400;2024-02-04T13:52:47;0.80;;;0.80;;
14306;SDS011;7237;49.500;11.400;2024-02-04T13:55:14;0.70;;;0.70;;
14306;SDS011;7237;49.500;11.400;2024-02-04T13:57:41;0.80;;;0.80;;
14306;SDS011;7237;49.500;11.400;2024-02-04T14:00:09;0.90;;;0.90;;
14306;SDS011;7237;49.500;11.400;2024-02-04T14:02:36;1.23;;;1.10;;
14306;SDS011;7237;49.500;11.400;2024-02-04T14:05:05;0.97;;;0.97;;
14306;SDS011;7237;49.500;11.400;2024-02-04T14:07:32;0.30;;;0.30;;
14306;SDS011;7237;49.500;11.400;2024-02-04T14:09:59;0.80;;;0.80;;
14306;SDS011;7237;49.500;11.400;2024-02-04T14:12:27;0.90;;;0.90;;
14306;SDS011;7237;49.500;11.400;2024-02-04T14:14:54;0.80;;;0.80;;
14306;SDS011;7237;49.500;11.400;2024-02-04T14:17:21;0.77;;;0.77;;
14306;SDS011;7237;49.500;11.400;2024-02-04T14:19:48;0.93;;;0.90;;
14306;SDS011;7237;49.500;11.400;2024-02-04T14:22:18;0.70;;;0.70;;
14306;SDS011;7237;49.500;11.400;2024-02-04T14:24:46;1.20;;;1.10;;
14306;SDS011;7237;49.500;11.400;2024-02-04T14:27:14;0.90;;;0.90;;
14306;SDS011;7237;49.500;11.400;2024-02-04T14:29:41;1.20;;;1.10;;
14306;SDS011;7237;49.500;11.400;2024-02-04T14:32:08;0.80;;;0.80;;
14306;SDS011;7237;49.500;11.400;2024-02-04T14:34:35;0.60;;;0.60;;
14306;SDS011;7237;49.500;11.400;2024-02-04T14:37:02;0.70;;;0.70;;
14306;SDS011;7237;49.500;11.400;2024-02-04T14:39:31;1.33;;;0.80;;
14306;SDS011;7237;49.500;11.400;2024-02-04T14:41:58;0.60;;;0.60;;
14306;SDS011;7237;49.500;11.400;2024-02-04T14:44:26;0.67;;;0.50;;
14306;SDS011;7237;49.500;11.400;2024-02-04T14:46:53;0.50;;;0.50;;
14306;SDS011;7237;49.500;11.400;2024-02-04T14:49:20;0.43;;;0.43;;
14306;SDS011;7237;49.500;11.400;2024-02-04T14:51:47;0.60;;;0.60;;